sensor_id;sensor_type;location;lat;lon;timestamp;temperature;humidity
17307;DHT22;8771;48.048;7.682;2022-09-09T00:01:35;18.30;61.30
17307;DHT22;8771;48.048;7.682;2022-09-09T00:06:45;18.40;61.30
17307;DHT22;8771;48.048;7.682;2022-09-09T00:11:51;18.40;61.30
17307;DHT22;8771;48.048;7.682;2022-09-09T00:17:01;18.40;62.10
17307;DHT22;8771;48.048;7.682;2022-09-09T00:22:15;18.40;61.30
17307;DHT22;8771;48.048;7.682;2022-09-09T00:27:25;18.40;61.30
17307;DHT22;8771;48.048;7.682;2022-09-09T00:32:32;18.40;61.30
17307;DHT22;8771;48.048;7.682;2022-09-09T00:37:37;18.40;61.40
17307;DHT22;8771;48.048;7.682;2022-09-09T00:42:43;18.40;61.50
17307;DHT22;8771;48.048;7.682;2022-09-09T00:47:50;18.40;61.40
17307;DHT22;8771;48.048;7.682;2022-09-09T00:52:57;18.40;61.40
17307;DHT22;8771;48.048;7.682;2022-09-09T00:58:01;18.20;61.50
17307;DHT22;8771;48.048;7.682;2022-09-09T01:03:17;18.10;61.70
17307;DHT22;8771;48.048;7.682;2022-09-09T01:13:56;18.10;61.70
17307;DHT22;8771;48.048;7.682;2022-09-09T01:19:06;18.10;61.70
17307;DHT22;8771;48.048;7.682;2022-09-09T01:24:22;18.10;61.70
17307;DHT22;8771;48.048;7.682;2022-09-09T01:29:29;18.10;61.60
17307;DHT22;8771;48.048;7.682;2022-09-09T01:34:36;18.10;61.60
17307;DHT22;8771;48.048;7.682;2022-09-09T01:39:43;18.20;61.60
17307;DHT22;8771;48.048;7.682;2022-09-09T01:44:48;18.20;61.50
17307;DHT22;8771;48.048;7.682;2022-09-09T01:49:50;18.20;61.40
17307;DHT22;8771;48.048;7.682;2022-09-09T01:54:53;18.30;61.40
17307;DHT22;8771;48.048;7.682;2022-09-09T02:00:02;18.30;61.40
17307;DHT22;8771;48.048;7.682;2022-09-09T02:05:15;18.30;61.40
17307;DHT22;8771;48.048;7.682;2022-09-09T02:10:22;18.30;61.40
17307;DHT22;8771;48.048;7.682;2022-09-09T02:15:31;18.30;61.40
17307;DHT22;8771;48.048;7.682;2022-09-09T02:20:35;18.30;61.40
17307;DHT22;8771;48.048;7.682;2022-09-09T02:25:39;18.30;61.60
17307;DHT22;8771;48.048;7.682;2022-09-09T02:30:45;18.20;61.60
17307;DHT22;8771;48.048;7.682;2022-09-09T02:35:50;18.20;61.70
17307;DHT22;8771;48.048;7.682;2022-09-09T02:40:53;18.10;61.70
17307;DHT22;8771;48.048;7.682;2022-09-09T02:46:04;18.10;61.80
17307;DHT22;8771;48.048;7.682;2022-09-09T02:51:14;18.10;61.90
17307;DHT22;8771;48.048;7.682;2022-09-09T02:56:21;18.00;61.90
17307;DHT22;8771;48.048;7.682;2022-09-09T03:01:25;18.00;61.90
17307;DHT22;8771;48.048;7.682;2022-09-09T03:06:28;18.00;61.90
17307;DHT22;8771;48.048;7.682;2022-09-09T03:11:31;18.00;62.00
17307;DHT22;8771;48.048;7.682;2022-09-09T03:16:34;18.00;62.00
17307;DHT22;8771;48.048;7.682;2022-09-09T03:21:37;18.00;62.00
17307;DHT22;8771;48.048;7.682;2022-09-09T03:26:40;18.00;62.00
17307;DHT22;8771;48.048;7.682;2022-09-09T03:31:46;18.00;62.00
17307;DHT22;8771;48.048;7.682;2022-09-09T03:36:49;18.00;62.00
17307;DHT22;8771;48.048;7.682;2022-09-09T03:41:54;18.00;62.80
17307;DHT22;8771;48.048;7.682;2022-09-09T03:46:57;18.00;62.00
17307;DHT22;8771;48.048;7.682;2022-09-09T03:52:01;17.90;62.10
17307;DHT22;8771;48.048;7.682;2022-09-09T03:57:06;17.90;62.20
17307;DHT22;8771;48.048;7.682;2022-09-09T04:02:10;17.90;62.30
17307;DHT22;8771;48.048;7.682;2022-09-09T04:07:13;17.80;62.30
17307;DHT22;8771;48.048;7.682;2022-09-09T04:12:16;17.70;62.40
17307;DHT22;8771;48.048;7.682;2022-09-09T04:17:23;17.60;62.50
17307;DHT22;8771;48.048;7.682;2022-09-09T04:22:27;17.60;62.60
17307;DHT22;8771;48.048;7.682;2022-09-09T04:27:30;17.50;62.70
17307;DHT22;8771;48.048;7.682;2022-09-09T04:32:33;17.30;62.80
17307;DHT22;8771;48.048;7.682;2022-09-09T04:37:36;17.30;63.00
17307;DHT22;8771;48.048;7.682;2022-09-09T04:42:39;17.20;63.00
17307;DHT22;8771;48.048;7.682;2022-09-09T04:47:46;17.20;63.00
17307;DHT22;8771;48.048;7.682;2022-09-09T04:52:48;17.20;63.00
17307;DHT22;8771;48.048;7.682;2022-09-09T04:57:50;17.20;63.00
17307;DHT22;8771;48.048;7.682;2022-09-09T05:02:54;17.20;63.00
17307;DHT22;8771;48.048;7.682;2022-09-09T05:08:01;17.20;63.00
17307;DHT22;8771;48.048;7.682;2022-09-09T05:13:03;17.20;63.00
17307;DHT22;8771;48.048;7.682;2022-09-09T05:18:09;17.20;63.00
17307;DHT22;8771;48.048;7.682;2022-09-09T05:23:11;17.30;63.00
17307;DHT22;8771;48.048;7.682;2022-09-09T05:28:14;17.30;62.90
17307;DHT22;8771;48.048;7.682;2022-09-09T05:33:18;17.40;62.80
17307;DHT22;8771;48.048;7.682;2022-09-09T05:38:21;17.50;62.70
17307;DHT22;8771;48.048;7.682;2022-09-09T05:43:25;17.60;62.60
17307;DHT22;8771;48.048;7.682;2022-09-09T05:48:31;17.70;62.50
17307;DHT22;8771;48.048;7.682;2022-09-09T05:53:33;17.80;62.50
17307;DHT22;8771;48.048;7.682;2022-09-09T05:58:36;17.90;62.40
17307;DHT22;8771;48.048;7.682;2022-09-09T06:03:42;18.00;62.30
17307;DHT22;8771;48.048;7.682;2022-09-09T06:08:45;18.10;62.20
17307;DHT22;8771;48.048;7.682;2022-09-09T06:13:48;18.20;62.10
17307;DHT22;8771;48.048;7.682;2022-09-09T06:18:54;18.30;62.10
17307;DHT22;8771;48.048;7.682;2022-09-09T06:23:57;18.40;62.10
17307;DHT22;8771;48.048;7.682;2022-09-09T06:29:00;18.40;62.10
17307;DHT22;8771;48.048;7.682;2022-09-09T06:34:07;18.50;62.10
17307;DHT22;8771;48.048;7.682;2022-09-09T06:39:09;18.70;62.00
17307;DHT22;8771;48.048;7.682;2022-09-09T06:44:13;18.80;61.80
17307;DHT22;8771;48.048;7.682;2022-09-09T06:49:17;18.90;61.60
17307;DHT22;8771;48.048;7.682;2022-09-09T06:54:19;19.20;61.30
17307;DHT22;8771;48.048;7.682;2022-09-09T06:59:24;19.60;61.00
17307;DHT22;8771;48.048;7.682;2022-09-09T07:04:27;20.00;60.60
17307;DHT22;8771;48.048;7.682;2022-09-09T07:09:30;20.40;60.30
17307;DHT22;8771;48.048;7.682;2022-09-09T07:14:32;20.70;59.90
17307;DHT22;8771;48.048;7.682;2022-09-09T07:19:39;21.00;59.70
17307;DHT22;8771;48.048;7.682;2022-09-09T07:24:42;21.30;59.50
17307;DHT22;8771;48.048;7.682;2022-09-09T07:29:45;21.50;59.40
17307;DHT22;8771;48.048;7.682;2022-09-09T07:34:50;21.60;59.50
17307;DHT22;8771;48.048;7.682;2022-09-09T07:39:52;21.50;59.70
17307;DHT22;8771;48.048;7.682;2022-09-09T07:44:56;21.50;59.80
17307;DHT22;8771;48.048;7.682;2022-09-09T07:50:00;21.60;59.90
17307;DHT22;8771;48.048;7.682;2022-09-09T07:55:04;21.80;59.80
17307;DHT22;8771;48.048;7.682;2022-09-09T08:00:08;21.90;59.80
17307;DHT22;8771;48.048;7.682;2022-09-09T08:05:13;22.10;59.60
17307;DHT22;8771;48.048;7.682;2022-09-09T08:10:17;22.30;59.50
17307;DHT22;8771;48.048;7.682;2022-09-09T08:15:19;22.60;59.30
17307;DHT22;8771;48.048;7.682;2022-09-09T08:20:24;22.90;59.20
17307;DHT22;8771;48.048;7.682;2022-09-09T08:25:26;23.10;59.00
17307;DHT22;8771;48.048;7.682;2022-09-09T08:30:29;23.40;58.80
17307;DHT22;8771;48.048;7.682;2022-09-09T08:35:33;23.70;58.60
17307;DHT22;8771;48.048;7.682;2022-09-09T08:40:38;24.00;58.40
17307;DHT22;8771;48.048;7.682;2022-09-09T08:45:50;24.30;58.20
17307;DHT22;8771;48.048;7.682;2022-09-09T08:50:55;24.60;58.10
17307;DHT22;8771;48.048;7.682;2022-09-09T08:56:09;24.90;58.00
17307;DHT22;8771;48.048;7.682;2022-09-09T09:01:26;25.30;57.60
17307;DHT22;8771;48.048;7.682;2022-09-09T09:06:48;25.80;57.30
17307;DHT22;8771;48.048;7.682;2022-09-09T09:11:55;26.10;57.30
17307;DHT22;8771;48.048;7.682;2022-09-09T09:17:04;26.10;57.30
17307;DHT22;8771;48.048;7.682;2022-09-09T09:22:19;26.00;57.50
17307;DHT22;8771;48.048;7.682;2022-09-09T09:27:31;25.90;57.70
17307;DHT22;8771;48.048;7.682;2022-09-09T09:32:35;25.90;57.90
17307;DHT22;8771;48.048;7.682;2022-09-09T09:37:41;25.80;57.90
17307;DHT22;8771;48.048;7.682;2022-09-09T09:42:49;25.80;58.20
17307;DHT22;8771;48.048;7.682;2022-09-09T09:47:59;25.90;58.00
17307;DHT22;8771;48.048;7.682;2022-09-09T09:53:05;26.30;57.60
17307;DHT22;8771;48.048;7.682;2022-09-09T09:58:15;26.70;57.30
17307;DHT22;8771;48.048;7.682;2022-09-09T10:03:24;26.90;57.00
17307;DHT22;8771;48.048;7.682;2022-09-09T10:08:29;27.00;56.90
17307;DHT22;8771;48.048;7.682;2022-09-09T10:13:37;27.20;56.70
17307;DHT22;8771;48.048;7.682;2022-09-09T10:18:53;27.50;56.50
17307;DHT22;8771;48.048;7.682;2022-09-09T10:24:13;27.60;56.60
17307;DHT22;8771;48.048;7.682;2022-09-09T10:29:33;27.40;56.70
17307;DHT22;8771;48.048;7.682;2022-09-09T10:34:51;27.10;57.20
17307;DHT22;8771;48.048;7.682;2022-09-09T10:40:04;26.90;57.30
17307;DHT22;8771;48.048;7.682;2022-09-09T10:45:15;26.70;57.40
17307;DHT22;8771;48.048;7.682;2022-09-09T10:50:32;26.80;57.30
17307;DHT22;8771;48.048;7.682;2022-09-09T10:55:42;26.70;57.40
17307;DHT22;8771;48.048;7.682;2022-09-09T11:00:50;26.20;57.60
17307;DHT22;8771;48.048;7.682;2022-09-09T11:05:56;25.90;58.00
17307;DHT22;8771;48.048;7.682;2022-09-09T11:11:03;25.70;58.20
17307;DHT22;8771;48.048;7.682;2022-09-09T11:16:17;25.40;58.20
17307;DHT22;8771;48.048;7.682;2022-09-09T11:21:25;25.20;58.40
17307;DHT22;8771;48.048;7.682;2022-09-09T11:26:36;25.10;58.40
17307;DHT22;8771;48.048;7.682;2022-09-09T11:31:50;25.10;58.30
17307;DHT22;8771;48.048;7.682;2022-09-09T11:37:08;25.30;58.60
17307;DHT22;8771;48.048;7.682;2022-09-09T11:42:19;25.40;57.70
17307;DHT22;8771;48.048;7.682;2022-09-09T11:47:24;25.30;57.60
17307;DHT22;8771;48.048;7.682;2022-09-09T11:52:40;25.10;57.60
17307;DHT22;8771;48.048;7.682;2022-09-09T11:57:45;25.10;57.70
17307;DHT22;8771;48.048;7.682;2022-09-09T12:02:49;25.10;57.50
17307;DHT22;8771;48.048;7.682;2022-09-09T12:07:55;25.00;57.50
17307;DHT22;8771;48.048;7.682;2022-09-09T12:13:16;25.00;57.50
17307;DHT22;8771;48.048;7.682;2022-09-09T12:18:23;25.00;57.50
17307;DHT22;8771;48.048;7.682;2022-09-09T12:23:40;25.10;57.30
17307;DHT22;8771;48.048;7.682;2022-09-09T12:28:55;25.20;57.10
17307;DHT22;8771;48.048;7.682;2022-09-09T12:34:10;25.50;56.90
17307;DHT22;8771;48.048;7.682;2022-09-09T12:39:18;25.80;56.60
17307;DHT22;8771;48.048;7.682;2022-09-09T12:44:23;26.20;56.20
17307;DHT22;8771;48.048;7.682;2022-09-09T12:49:28;26.20;56.00
17307;DHT22;8771;48.048;7.682;2022-09-09T12:54:35;26.10;56.30
17307;DHT22;8771;48.048;7.682;2022-09-09T12:59:40;25.90;56.50
17307;DHT22;8771;48.048;7.682;2022-09-09T13:04:46;25.90;56.60
17307;DHT22;8771;48.048;7.682;2022-09-09T13:09:51;25.80;56.70
17307;DHT22;8771;48.048;7.682;2022-09-09T13:14:56;25.90;56.70
17307;DHT22;8771;48.048;7.682;2022-09-09T13:19:58;25.90;56.50
17307;DHT22;8771;48.048;7.682;2022-09-09T13:35:25;25.90;56.50
17307;DHT22;8771;48.048;7.682;2022-09-09T13:40:28;25.80;56.60
17307;DHT22;8771;48.048;7.682;2022-09-09T13:45:31;25.60;56.70
17307;DHT22;8771;48.048;7.682;2022-09-09T13:50:37;25.50;56.80
17307;DHT22;8771;48.048;7.682;2022-09-09T13:55:39;25.60;56.90
17307;DHT22;8771;48.048;7.682;2022-09-09T14:00:41;25.80;56.60
17307;DHT22;8771;48.048;7.682;2022-09-09T14:05:46;26.00;56.20
17307;DHT22;8771;48.048;7.682;2022-09-09T14:10:49;26.10;56.10
17307;DHT22;8771;48.048;7.682;2022-09-09T14:15:51;26.20;56.00
17307;DHT22;8771;48.048;7.682;2022-09-09T14:20:55;26.20;56.00
17307;DHT22;8771;48.048;7.682;2022-09-09T14:25:57;26.20;55.90
17307;DHT22;8771;48.048;7.682;2022-09-09T14:31:02;26.30;55.80
17307;DHT22;8771;48.048;7.682;2022-09-09T14:36:10;26.40;55.70
17307;DHT22;8771;48.048;7.682;2022-09-09T14:41:18;26.20;55.90
17307;DHT22;8771;48.048;7.682;2022-09-09T14:46:23;26.00;56.10
17307;DHT22;8771;48.048;7.682;2022-09-09T14:51:28;25.90;56.30
17307;DHT22;8771;48.048;7.682;2022-09-09T14:56:32;25.70;56.40
17307;DHT22;8771;48.048;7.682;2022-09-09T15:01:35;25.60;56.50
17307;DHT22;8771;48.048;7.682;2022-09-09T15:06:38;25.50;56.60
17307;DHT22;8771;48.048;7.682;2022-09-09T15:11:44;25.40;56.50
17307;DHT22;8771;48.048;7.682;2022-09-09T15:16:48;25.40;56.50
17307;DHT22;8771;48.048;7.682;2022-09-09T15:21:54;25.40;56.50
17307;DHT22;8771;48.048;7.682;2022-09-09T15:26:59;25.40;56.50
17307;DHT22;8771;48.048;7.682;2022-09-09T15:32:03;25.30;56.50
17307;DHT22;8771;48.048;7.682;2022-09-09T15:37:07;25.10;56.50
17307;DHT22;8771;48.048;7.682;2022-09-09T15:42:13;25.00;56.60
17307;DHT22;8771;48.048;7.682;2022-09-09T15:47:16;24.80;56.70
17307;DHT22;8771;48.048;7.682;2022-09-09T15:52:20;24.80;56.90
17307;DHT22;8771;48.048;7.682;2022-09-09T15:57:23;24.60;56.90
17307;DHT22;8771;48.048;7.682;2022-09-09T16:02:25;24.50;56.90
17307;DHT22;8771;48.048;7.682;2022-09-09T16:07:29;24.40;57.00
17307;DHT22;8771;48.048;7.682;2022-09-09T16:12:31;24.20;57.10
17307;DHT22;8771;48.048;7.682;2022-09-09T16:17:33;23.90;57.50
17307;DHT22;8771;48.048;7.682;2022-09-09T16:22:39;23.40;57.90
17307;DHT22;8771;48.048;7.682;2022-09-09T16:27:42;23.10;58.20
17307;DHT22;8771;48.048;7.682;2022-09-09T16:32:45;22.90;58.50
17307;DHT22;8771;48.048;7.682;2022-09-09T16:37:49;22.60;58.60
17307;DHT22;8771;48.048;7.682;2022-09-09T16:42:53;22.40;59.40
17307;DHT22;8771;48.048;7.682;2022-09-09T16:47:56;22.20;58.90
17307;DHT22;8771;48.048;7.682;2022-09-09T16:53:00;22.10;58.90
17307;DHT22;8771;48.048;7.682;2022-09-09T16:58:04;21.90;58.90
17307;DHT22;8771;48.048;7.682;2022-09-09T17:03:06;21.80;59.50
17307;DHT22;8771;48.048;7.682;2022-09-09T17:08:09;21.70;59.00
17307;DHT22;8771;48.048;7.682;2022-09-09T17:13:11;21.60;59.00
17307;DHT22;8771;48.048;7.682;2022-09-09T17:18:13;21.50;59.10
17307;DHT22;8771;48.048;7.682;2022-09-09T17:23:18;21.30;59.20
17307;DHT22;8771;48.048;7.682;2022-09-09T17:28:21;21.20;59.40
17307;DHT22;8771;48.048;7.682;2022-09-09T17:33:27;21.00;59.50
17307;DHT22;8771;48.048;7.682;2022-09-09T17:38:32;20.90;59.60
17307;DHT22;8771;48.048;7.682;2022-09-09T17:43:35;20.70;59.70
17307;DHT22;8771;48.048;7.682;2022-09-09T17:48:38;20.60;59.80
17307;DHT22;8771;48.048;7.682;2022-09-09T17:53:44;20.60;59.80
17307;DHT22;8771;48.048;7.682;2022-09-09T17:58:49;20.40;59.80
17307;DHT22;8771;48.048;7.682;2022-09-09T18:03:52;20.40;59.90
17307;DHT22;8771;48.048;7.682;2022-09-09T18:08:59;20.30;59.90
17307;DHT22;8771;48.048;7.682;2022-09-09T18:14:03;20.20;59.90
17307;DHT22;8771;48.048;7.682;2022-09-09T18:19:07;20.10;59.90
17307;DHT22;8771;48.048;7.682;2022-09-09T18:24:16;20.00;60.00
17307;DHT22;8771;48.048;7.682;2022-09-09T18:29:22;19.90;60.20
17307;DHT22;8771;48.048;7.682;2022-09-09T18:34:24;19.80;60.30
17307;DHT22;8771;48.048;7.682;2022-09-09T18:39:30;19.80;60.40
17307;DHT22;8771;48.048;7.682;2022-09-09T18:44:33;19.70;60.40
17307;DHT22;8771;48.048;7.682;2022-09-09T18:49:36;19.70;60.30
17307;DHT22;8771;48.048;7.682;2022-09-09T18:54:41;19.70;60.30
17307;DHT22;8771;48.048;7.682;2022-09-09T18:59:46;19.60;60.30
17307;DHT22;8771;48.048;7.682;2022-09-09T19:04:48;19.60;61.20
17307;DHT22;8771;48.048;7.682;2022-09-09T19:09:52;19.50;60.50
17307;DHT22;8771;48.048;7.682;2022-09-09T19:14:53;19.40;60.60
17307;DHT22;8771;48.048;7.682;2022-09-09T19:19:55;19.40;60.60
17307;DHT22;8771;48.048;7.682;2022-09-09T19:24:59;19.30;60.60
17307;DHT22;8771;48.048;7.682;2022-09-09T19:30:05;19.30;60.60
17307;DHT22;8771;48.048;7.682;2022-09-09T19:35:07;19.30;60.60
17307;DHT22;8771;48.048;7.682;2022-09-09T19:40:12;19.30;60.60
17307;DHT22;8771;48.048;7.682;2022-09-09T19:45:14;19.20;60.70
17307;DHT22;8771;48.048;7.682;2022-09-09T19:50:16;19.10;60.90
17307;DHT22;8771;48.048;7.682;2022-09-09T19:55:20;19.00;61.00
17307;DHT22;8771;48.048;7.682;2022-09-09T20:00:26;18.90;61.10
17307;DHT22;8771;48.048;7.682;2022-09-09T20:05:31;18.80;61.20
17307;DHT22;8771;48.048;7.682;2022-09-09T20:10:34;18.70;61.30
17307;DHT22;8771;48.048;7.682;2022-09-09T20:15:36;18.70;61.40
17307;DHT22;8771;48.048;7.682;2022-09-09T20:20:40;18.60;61.40
17307;DHT22;8771;48.048;7.682;2022-09-09T20:25:44;18.70;61.50
17307;DHT22;8771;48.048;7.682;2022-09-09T20:30:47;18.70;61.30
17307;DHT22;8771;48.048;7.682;2022-09-09T20:35:50;18.60;61.20
17307;DHT22;8771;48.048;7.682;2022-09-09T20:40:55;18.70;61.20
17307;DHT22;8771;48.048;7.682;2022-09-09T20:46:00;18.70;61.20
17307;DHT22;8771;48.048;7.682;2022-09-09T20:51:04;18.70;61.20
17307;DHT22;8771;48.048;7.682;2022-09-09T20:56:07;18.60;61.20
17307;DHT22;8771;48.048;7.682;2022-09-09T21:01:14;18.60;61.20
17307;DHT22;8771;48.048;7.682;2022-09-09T21:06:16;18.60;61.20
17307;DHT22;8771;48.048;7.682;2022-09-09T21:11:20;18.60;61.20
17307;DHT22;8771;48.048;7.682;2022-09-09T21:16:22;18.60;61.20
17307;DHT22;8771;48.048;7.682;2022-09-09T21:21:25;18.70;61.10
17307;DHT22;8771;48.048;7.682;2022-09-09T21:26:32;18.60;61.00
17307;DHT22;8771;48.048;7.682;2022-09-09T21:31:35;18.70;61.00
17307;DHT22;8771;48.048;7.682;2022-09-09T21:36:37;18.60;61.00
17307;DHT22;8771;48.048;7.682;2022-09-09T21:41:41;18.60;61.00
17307;DHT22;8771;48.048;7.682;2022-09-09T21:46:44;18.60;61.00
17307;DHT22;8771;48.048;7.682;2022-09-09T21:51:46;18.60;61.10
17307;DHT22;8771;48.048;7.682;2022-09-09T21:56:49;18.50;61.00
17307;DHT22;8771;48.048;7.682;2022-09-09T22:01:53;18.50;61.00
17307;DHT22;8771;48.048;7.682;2022-09-09T22:06:56;18.40;61.10
17307;DHT22;8771;48.048;7.682;2022-09-09T22:11:59;18.40;61.10
17307;DHT22;8771;48.048;7.682;2022-09-09T22:17:02;18.50;61.10
17307;DHT22;8771;48.048;7.682;2022-09-09T22:22:05;18.50;61.00
17307;DHT22;8771;48.048;7.682;2022-09-09T22:27:08;18.50;61.80
17307;DHT22;8771;48.048;7.682;2022-09-09T22:32:11;18.50;61.00
17307;DHT22;8771;48.048;7.682;2022-09-09T22:37:13;18.60;61.00
17307;DHT22;8771;48.048;7.682;2022-09-09T22:42:16;18.60;61.00
17307;DHT22;8771;48.048;7.682;2022-09-09T22:47:18;18.60;61.00
17307;DHT22;8771;48.048;7.682;2022-09-09T22:52:21;18.60;61.00
17307;DHT22;8771;48.048;7.682;2022-09-09T22:57:29;18.50;60.90
17307;DHT22;8771;48.048;7.682;2022-09-09T23:02:31;18.50;61.00
17307;DHT22;8771;48.048;7.682;2022-09-09T23:07:34;18.50;61.10
17307;DHT22;8771;48.048;7.682;2022-09-09T23:12:38;18.50;61.00
17307;DHT22;8771;48.048;7.682;2022-09-09T23:17:41;18.50;61.10
17307;DHT22;8771;48.048;7.682;2022-09-09T23:22:43;18.40;61.00
17307;DHT22;8771;48.048;7.682;2022-09-09T23:27:47;18.40;61.10
17307;DHT22;8771;48.048;7.682;2022-09-09T23:32:49;18.40;61.20
17307;DHT22;8771;48.048;7.682;2022-09-09T23:37:51;18.40;61.20
17307;DHT22;8771;48.048;7.682;2022-09-09T23:42:54;18.30;61.20
17307;DHT22;8771;48.048;7.682;2022-09-09T23:47:56;18.30;61.20
17307;DHT22;8771;48.048;7.682;2022-09-09T23:52:59;18.30;61.20
17307;DHT22;8771;48.048;7.682;2022-09-09T23:58:03;18.30;61.30
